• images/banner/banner1.jpg
  • images/banner/banner2.jpg

Team Member Login

Aviation Weather

[source: ADDS]
METAR
EGVN 182150Z 04005KT CAVOK 13/04 Q1025 NOSIG =
TAF EGVN 181919Z 1821/1921 08008KT CAVOK PROB30 1904/1907 5000 HZ
TAF
TAF EGVN 181919Z 1821/1921 08008KT CAVOK PROB30 1904/1907 5000 HZ =